Главная страница
METAR-TAF:

METAR-TAF

Аэропорты :

Канзас-Сити, Миссури, США

широта: 39-17-50N, долгота: 094-43-50W, высота над уровнем моря: 312 м

Текущие метеонаблюдения

Эта сводка был подготовлена 15 минут назад, в 12:53 UTC
Ветер 8 Узел от северный
Температура 13°C
Влажность 44%
Давление 1020 hPa
Видимость: 16.1 км
Отдельные облака на высоте 9000 фута
Отдельные облака на высоте 16000 фута

METAR: KMCI 231253Z 01008KT 10SM SCT090 SCT160 13/01 A3012 RMK AO2 SLP195 T01280011 $

Время: 08:08 (13:08 UTC)

Прогноз

Эта сводка был подготовлена 1 час и 48 минут назад, в 11:20 UTC
Прогноз действительный с 23-го 12 UTC до 24-го 12 UTC
Ветер 5 Узел от северо-северо-восточный
Видимость: 10 км
Рассеянная облачность на высоте 9000 фута
С 23-го 1600 UTC
Ветер 10 Узел от северо-северо-восточный
Видимость: 10 км
Отдельные облака на высоте 25000 фута

TAF: KMCI 231120Z 2312/2412 02005KT P6SM BKN090 FM231600 03010KT P6SM SCT250

Метеонаблюдения и прогнозы для более 4000 аэропортов (сводки METAR и TAF).

Имеющиеся станции представлены на карте желтыми и красными точками.

Чтобы увидеть название станции, наведите на нее мышь.

Затем щелкните, чтобы увидеть метеонаблюдения и метеопрогнозы.

Управление картой: чтобы увеличить масштаб, щелкните зеленые кнопки с черным крестиком; чтобы уменьшить масштаб, щелкните зеленую кнопку с тире; для просмотра соседних карт щелкайте зеленые стрелки.


METAR-TAF: